createdAt,value
2023-05-16T00:02:45.972Z,98444.22
2023-05-16T00:07:48.934Z,98456.78
2023-05-16T00:12:52.613Z,98463.59
2023-05-16T00:17:58.576Z,98468.72
2023-05-16T00:23:01.836Z,98467.25
2023-05-16T00:28:04.844Z,98475.41
2023-05-16T00:33:09.178Z,98476.75
2023-05-16T00:38:12.682Z,98474.75
2023-05-16T00:43:15.585Z,98479.22
2023-05-16T00:48:20.485Z,98486.56
2023-05-16T00:53:24.210Z,98489.53
2023-05-16T00:58:27.571Z,98487.69
2023-05-16T01:03:32.138Z,98495.50
2023-05-16T01:08:35.836Z,98497.03
2023-05-16T01:13:49.344Z,98500.00
2023-05-16T01:19:03.905Z,98508.31
2023-05-16T01:24:16.096Z,98505.63
2023-05-16T01:29:20.675Z,98511.28
2023-05-16T01:34:24.292Z,98512.41
2023-05-16T01:39:34.699Z,98516.94
2023-05-16T01:44:44.482Z,98506.84
2023-05-16T01:49:58.275Z,98523.34
2023-05-16T01:55:01.789Z,98524.94
2023-05-16T02:00:07.610Z,98532.09
2023-05-16T02:05:30.818Z,98540.25
2023-05-16T02:10:34.003Z,98546.34
2023-05-16T02:15:38.219Z,98540.69
2023-05-16T02:20:41.257Z,98545.13
2023-05-16T02:25:44.197Z,98546.00
2023-05-16T02:30:57.584Z,98544.09
2023-05-16T02:36:00.800Z,98543.63
2023-05-16T02:41:03.719Z,98553.84
2023-05-16T02:46:21.575Z,98558.41
2023-05-16T02:51:26.068Z,98565.69
2023-05-16T02:56:29.080Z,98579.31
2023-05-16T03:01:33.467Z,98579.38
2023-05-16T03:06:36.397Z,98581.56
2023-05-16T03:11:39.359Z,98589.56
2023-05-16T03:16:44.062Z,98592.53
2023-05-16T03:21:47.081Z,98599.03
2023-05-16T03:26:50.129Z,98602.19
2023-05-16T03:31:57.639Z,98606.06
2023-05-16T03:37:00.776Z,98609.94
2023-05-16T03:42:03.626Z,98611.31
2023-05-16T03:47:08.052Z,98625.22
2023-05-16T03:52:11.257Z,98631.59
2023-05-16T03:57:14.133Z,98631.84
2023-05-16T04:02:19.001Z,98632.19
2023-05-16T04:07:23.855Z,98642.78
2023-05-16T04:12:27.056Z,98642.41
2023-05-16T04:17:31.464Z,98659.69
2023-05-16T04:22:34.581Z,98665.22
2023-05-16T04:27:37.612Z,98669.47
2023-05-16T04:32:41.987Z,98681.13
2023-05-16T04:37:44.943Z,98693.09
2023-05-16T04:42:47.835Z,98701.22
2023-05-16T04:47:52.375Z,98699.38
2023-05-16T04:52:56.572Z,98699.19
2023-05-16T04:57:59.550Z,98704.78
2023-05-16T05:03:04.532Z,98704.28
2023-05-16T05:08:07.684Z,98723.81
2023-05-16T05:13:10.572Z,98725.91
2023-05-16T05:18:16.435Z,98732.88
2023-05-16T05:23:20.794Z,98731.13
2023-05-16T05:28:23.638Z,98742.69
2023-05-16T05:33:29.538Z,98736.25
2023-05-16T05:38:32.737Z,98748.69
2023-05-16T05:43:35.645Z,98745.63
2023-05-16T05:48:39.988Z,98748.94
2023-05-16T05:53:42.952Z,98747.59
2023-05-16T05:58:46.137Z,98763.94
2023-05-16T06:03:50.525Z,98765.41
2023-05-16T06:08:53.420Z,98773.66
2023-05-16T06:13:57.557Z,98788.34
2023-05-16T06:19:01.878Z,98792.22
2023-05-16T06:24:05.056Z,98795.75
2023-05-16T06:29:08.031Z,98798.09
2023-05-16T06:34:12.492Z,98792.53
2023-05-16T06:39:15.361Z,98800.09
2023-05-16T06:44:18.438Z,98800.97
2023-05-16T06:49:22.736Z,98810.16
2023-05-16T06:54:25.708Z,98808.84
2023-05-16T06:59:28.640Z,98819.47
2023-05-16T07:04:32.982Z,98822.56
2023-05-16T07:09:35.954Z,98832.47
2023-05-16T07:14:38.918Z,98839.47
2023-05-16T07:19:43.251Z,98826.63
2023-05-16T07:24:46.186Z,98824.75
2023-05-16T07:29:49.194Z,98833.75
2023-05-16T07:34:53.465Z,98838.91
2023-05-16T07:39:56.408Z,98841.31
2023-05-16T07:44:59.371Z,98844.88
2023-05-16T07:50:03.946Z,98843.53
2023-05-16T07:55:08.146Z,98859.41
2023-05-16T08:00:12.782Z,98861.03
2023-05-16T08:05:17.254Z,98867.44
2023-05-16T08:10:20.223Z,98866.41
2023-05-16T08:15:23.162Z,98878.03
2023-05-16T08:20:27.843Z,98887.75
2023-05-16T08:25:31.381Z,98899.44
2023-05-16T08:30:34.363Z,98887.25
2023-05-16T08:35:38.726Z,98897.47
2023-05-16T08:40:45.376Z,98910.63
2023-05-16T08:45:48.430Z,98919.38
2023-05-16T08:50:53.359Z,98921.03
2023-05-16T08:55:57.189Z,98927.47
2023-05-16T09:01:02.786Z,98925.28
2023-05-16T09:06:08.402Z,98923.25
2023-05-16T09:11:11.663Z,98934.34
2023-05-16T09:16:16.473Z,98932.38
2023-05-16T09:21:21.000Z,98932.75
2023-05-16T09:26:24.205Z,98942.50
2023-05-16T09:31:31.904Z,98948.50
2023-05-16T09:36:36.845Z,98959.41
2023-05-16T09:41:40.126Z,98962.00
2023-05-16T09:46:43.409Z,98960.44
2023-05-16T09:51:48.145Z,98964.03
2023-05-16T09:56:51.778Z,98972.78
2023-05-16T10:01:55.528Z,98982.84
2023-05-16T10:07:03.518Z,98987.53
2023-05-16T10:12:09.817Z,98980.84
2023-05-16T10:17:15.839Z,98974.03
2023-05-16T10:22:22.028Z,98980.00
2023-05-16T10:27:26.090Z,98988.31
2023-05-16T10:32:29.714Z,98978.59
2023-05-16T10:37:35.671Z,98973.00
2023-05-16T10:42:38.658Z,98967.53
2023-05-16T10:47:41.644Z,98971.50
2023-05-16T10:52:45.970Z,98976.94
2023-05-16T10:57:48.982Z,98970.25
2023-05-16T11:02:52.055Z,98974.63
2023-05-16T11:08:06.670Z,98966.63
2023-05-16T11:13:09.748Z,98976.63
2023-05-16T11:18:16.306Z,98977.69
2023-05-16T11:23:22.963Z,98972.84
2023-05-16T11:28:27.767Z,98963.72
2023-05-16T11:33:35.557Z,98964.25
2023-05-16T11:38:43.420Z,98949.25
2023-05-16T11:43:46.830Z,98952.66
2023-05-16T11:48:49.976Z,98944.97
2023-05-16T11:53:54.702Z,98952.00
2023-05-16T11:58:59.419Z,98951.56
2023-05-16T12:04:02.974Z,98943.53
2023-05-16T12:09:10.668Z,98945.59
2023-05-16T12:14:14.915Z,98937.00
2023-05-16T12:19:18.138Z,98940.44
2023-05-16T12:24:22.752Z,98943.97
2023-05-16T12:30:20.377Z,98963.78
2023-05-16T12:36:18.707Z,98956.59
2023-05-16T12:41:42.361Z,98960.22
2023-05-16T12:46:46.726Z,98971.56
2023-05-16T12:52:18.862Z,98976.03
2023-05-16T12:57:59.068Z,98980.75
2023-05-16T13:03:03.619Z,98981.50
2023-05-16T13:08:11.252Z,98979.47
2023-05-16T13:13:25.101Z,98996.88
2023-05-16T13:18:39.699Z,99001.13
2023-05-16T13:23:42.682Z,98997.56
2023-05-16T13:28:45.652Z,99001.66
2023-05-16T13:33:49.951Z,99007.59
2023-05-16T13:38:53.006Z,99016.16
2023-05-16T13:43:55.976Z,99010.75
2023-05-16T13:49:01.829Z,99007.84
2023-05-16T13:54:04.994Z,99012.28
2023-05-16T13:59:09.616Z,99015.53
2023-05-16T14:04:15.757Z,99012.31
2023-05-16T14:09:18.943Z,98994.47
2023-05-16T14:14:21.880Z,98982.53
2023-05-16T14:19:26.318Z,98997.38
2023-05-16T14:24:29.408Z,98994.28
2023-05-16T14:29:32.403Z,99002.00
2023-05-16T14:34:36.703Z,99004.97
2023-05-16T14:39:39.733Z,99003.59
2023-05-16T14:44:42.686Z,99008.28
2023-05-16T14:49:47.173Z,99030.44
2023-05-16T14:54:50.145Z,99030.84
2023-05-16T14:59:53.113Z,99039.38
2023-05-16T15:04:57.546Z,99050.88
2023-05-16T15:10:00.528Z,99045.25
2023-05-16T15:15:04.162Z,99048.53
2023-05-16T15:20:10.624Z,99038.16
2023-05-16T15:25:13.635Z,99042.22
2023-05-16T15:30:16.726Z,99034.94
2023-05-16T15:35:21.052Z,99043.41
2023-05-16T15:40:27.220Z,99049.13
2023-05-16T15:45:30.955Z,99039.50
2023-05-16T15:50:35.412Z,99037.66
2023-05-16T15:55:38.529Z,99031.81
2023-05-16T16:00:42.748Z,99040.00
2023-05-16T16:05:48.082Z,99031.34
2023-05-16T16:10:51.574Z,99011.75
2023-05-16T16:15:54.817Z,99011.84
2023-05-16T16:20:59.202Z,99007.09
2023-05-16T16:26:02.114Z,99004.16
2023-05-16T16:31:05.323Z,99010.19
2023-05-16T16:36:10.786Z,99010.34
2023-05-16T16:41:14.411Z,99013.38
2023-05-16T16:46:17.397Z,99016.06
2023-05-16T16:51:22.292Z,99021.94
2023-05-16T16:56:26.487Z,99036.38
2023-05-16T17:01:31.930Z,99026.75
2023-05-16T17:06:36.814Z,99036.31
2023-05-16T17:11:40.585Z,99046.00
2023-05-16T17:16:43.540Z,99050.69
2023-05-16T17:21:47.942Z,99058.69
2023-05-16T17:26:51.113Z,99054.78
2023-05-16T17:31:54.182Z,99049.53
2023-05-16T17:36:58.554Z,99050.19
2023-05-16T17:42:01.872Z,99048.81
2023-05-16T17:47:05.076Z,99057.00
2023-05-16T17:52:09.496Z,99050.16
2023-05-16T17:57:13.015Z,99052.19
2023-05-16T18:02:16.404Z,99060.88
2023-05-16T18:07:20.679Z,99067.44
2023-05-16T18:12:23.734Z,99047.41
2023-05-16T18:17:27.323Z,99052.13
2023-05-16T18:22:31.709Z,99056.59
2023-05-16T18:27:35.550Z,99065.66
2023-05-16T18:32:38.638Z,99071.38
2023-05-16T18:37:44.347Z,99071.75
2023-05-16T18:42:47.612Z,99073.94
2023-05-16T18:47:51.106Z,99074.25
2023-05-16T18:52:57.555Z,99095.16
2023-05-16T18:58:00.670Z,99099.09
2023-05-16T19:03:03.653Z,99102.69
2023-05-16T19:08:08.324Z,99115.53
2023-05-16T19:13:11.290Z,99121.66
2023-05-16T19:18:14.380Z,99123.16
2023-05-16T19:23:18.761Z,99130.16
2023-05-16T19:28:21.726Z,99127.03
2023-05-16T19:33:24.815Z,99130.88
2023-05-16T19:38:29.155Z,99130.16
2023-05-16T19:43:32.227Z,99129.41
2023-05-16T19:48:35.490Z,99138.72
2023-05-16T19:53:40.060Z,99153.63
2023-05-16T19:58:43.920Z,99152.91
2023-05-16T20:03:46.933Z,99162.31
2023-05-16T20:08:51.266Z,99159.88
2023-05-16T20:13:55.731Z,99153.72
2023-05-16T20:18:59.154Z,99156.06
2023-05-16T20:24:03.518Z,99158.59
2023-05-16T20:29:06.450Z,99163.88
2023-05-16T20:34:09.419Z,99164.84
2023-05-16T20:39:13.707Z,99167.47
2023-05-16T20:44:16.596Z,99170.69
2023-05-16T20:49:19.513Z,99178.38
2023-05-16T20:54:23.872Z,99175.56
2023-05-16T20:59:26.901Z,99181.00
2023-05-16T21:04:29.876Z,99182.38
2023-05-16T21:09:36.764Z,99187.22
2023-05-16T21:14:39.980Z,99187.22
2023-05-16T21:19:42.950Z,99199.94
2023-05-16T21:24:47.279Z,99198.91
2023-05-16T21:29:50.201Z,99208.78
2023-05-16T21:34:53.172Z,99206.59
2023-05-16T21:39:57.478Z,99204.56
2023-05-16T21:45:00.439Z,99215.03
2023-05-16T21:50:03.457Z,99217.06
2023-05-16T21:55:08.488Z,99218.06
2023-05-16T22:00:12.638Z,99233.56
2023-05-16T22:05:19.046Z,99221.66
2023-05-16T22:10:23.367Z,99231.31
2023-05-16T22:15:26.886Z,99229.28
2023-05-16T22:20:30.040Z,99235.53
2023-05-16T22:25:34.435Z,99246.75
2023-05-16T22:30:37.372Z,99249.56
2023-05-16T22:35:40.289Z,99263.22
2023-05-16T22:40:44.618Z,99251.81
2023-05-16T22:45:47.547Z,99258.81
2023-05-16T22:50:50.598Z,99269.84
2023-05-16T22:55:54.940Z,99262.75
2023-05-16T23:00:58.303Z,99268.78
2023-05-16T23:06:01.204Z,99271.94
2023-05-16T23:11:05.553Z,99295.16
2023-05-16T23:16:08.661Z,99294.38
2023-05-16T23:21:11.583Z,99286.75
2023-05-16T23:26:15.931Z,99284.06
2023-05-16T23:31:18.843Z,99287.38
2023-05-16T23:36:21.821Z,99307.56
2023-05-16T23:41:26.110Z,99307.19
2023-05-16T23:46:29.248Z,99311.31
2023-05-16T23:51:44.911Z,99315.66
2023-05-16T23:56:56.412Z,99309.69
